Time;durP1;ratioP1;P1;durP2;ratioP2;P2;SDS_P1;SDS_P2;PMS_P1;PMS_P2;Temp;Humidity;BMP_temperature;BMP_pressure;BME280_temperature;BME280_humidity;BME280_pressure;Samples;Min_cycle;Max_cycle;Signal;HPM_P1;HPM_P2
2023/07/19 00:02:00;;;;;;;;;;;;;;;;;;;;;
2023/07/19 00:05:50;;;;;;;3.60;2.90;;;;;;;15.65;58.00;100052.96;120502;1330;5445889;-69
2023/07/19 00:14:07;;;;;;;7.40;3.00;;;;;;;15.56;58.41;100045.75;126254;1296;635726;-67
2023/07/19 00:18:09;;;;;;;5.80;2.90;;;;;;;15.46;58.30;100042.29;127884;1281;128454;-69
2023/07/19 00:25:45;;;;;;;;;;;;;;;;;;;;;
2023/07/19 00:38:23;;;;;;;5.30;3.20;;;;;;;15.14;59.11;100036.91;125770;1304;638511;-67
2023/07/19 00:54:22;;;;;;;6.50;2.60;;;;;;;14.86;59.54;100031.94;124813;1321;114840;-67
2023/07/19 01:02:57;;;;;;;5.30;2.90;;;;;;;14.77;60.12;100015.66;125657;1299;638680;-66
2023/07/19 01:11:01;;;;;;;6.70;4.20;;;;;;;14.63;60.37;100006.56;125605;1322;115333;-68
2023/07/19 01:19:34;;;;;;;5.60;3.10;;;;;;;14.53;60.77;100008.93;125489;1298;638989;-66
2023/07/19 01:27:40;;;;;;;3.80;2.80;;;;;;;14.39;61.30;100006.42;127127;1288;115442;-66
2023/07/19 01:31:41;;;;;;;6.20;2.90;;;;;;;14.34;61.54;100011.27;122603;1295;5499161;-70
2023/07/19 01:35:43;;;;;;;5.90;2.60;;;;;;;14.29;61.57;100004.45;125761;1304;114908;-67
2023/07/19 01:44:01;;;;;;;3.30;3.00;;;;;;;14.23;61.88;99991.75;125719;1301;635234;-68
2023/07/19 01:48:04;;;;;;;3.60;2.60;;;;;;;14.18;62.25;99982.59;127422;1300;128652;-68
2023/07/19 01:52:06;;;;;;;4.00;2.90;;;;;;;14.15;62.44;99985.70;127924;1280;115207;-68
2023/07/19 01:56:09;;;;;;;5.30;2.70;;;;;;;14.11;62.74;99986.81;123505;1289;5462601;-67
2023/07/19 01:59:53;;;;;;;3.90;2.70;;;;;;;14.07;62.92;99993.56;126490;1295;114842;-68
2023/07/19 02:03:53;;;;;;;2.80;2.40;;;;;;;14.02;62.83;99996.23;125637;1320;114892;-67
2023/07/19 02:12:27;;;;;;;3.50;2.50;;;;;;;13.96;63.08;99994.29;125684;1299;638587;-68
2023/07/19 02:16:31;;;;;;;5.70;3.00;;;;;;;13.91;63.39;99996.13;127960;1285;127960;-71
2023/07/19 02:20:34;;;;;;;5.30;2.90;;;;;;;13.85;63.59;99993.45;128148;1286;115439;-65
2023/07/19 02:24:37;;;;;;;3.50;2.50;;;;;;;13.79;63.79;99991.71;122993;1296;5533183;-68
2023/07/19 02:28:38;;;;;;;5.40;3.10;;;;;;;13.73;63.95;99990.85;126037;1316;114930;-69
2023/07/19 02:32:39;;;;;;;6.40;2.60;;;;;;;13.68;64.18;99990.45;125200;1327;115102;-68
2023/07/19 02:45:04;;;;;;;4.60;2.90;;;;;;;13.56;64.64;99982.86;126732;1292;127875;-68
2023/07/19 02:49:21;;;;;;;6.00;3.10;;;;;;;13.52;64.88;99976.98;125691;1312;115358;-69
2023/07/19 02:53:23;;;;;;;6.10;3.20;;;;;;;13.47;65.03;99982.52;121013;1315;5499045;-69
2023/07/19 03:01:58;;;;;;;6.10;3.20;;;;;;;13.41;65.26;99975.18;125406;1303;638661;-69
2023/07/19 03:06:01;;;;;;;;;;;;;;;;;;;;;
2023/07/19 03:10:06;;;;;;;5.60;3.40;;;;;;;13.34;65.85;99982.10;126151;1315;116673;-68
2023/07/19 03:14:06;;;;;;;4.80;3.30;;;;;;;13.32;65.90;99987.77;121321;1323;5529810;-70
2023/07/19 03:18:08;;;;;;;7.40;3.10;;;;;;;13.34;65.98;99988.23;124770;1328;114917;-72
2023/07/19 03:26:43;;;;;;;5.50;3.20;;;;;;;13.39;66.25;99987.88;125429;1303;640711;-67
2023/07/19 03:30:46;;;;;;;3.90;2.80;;;;;;;13.41;66.48;99990.45;127838;1286;128347;-68
2023/07/19 03:42:55;;;;;;;3.30;2.70;;;;;;;13.57;66.60;99977.02;126287;1295;114737;-68
2023/07/19 03:46:59;;;;;;;7.70;3.00;;;;;;;13.67;66.70;99978.64;126391;1311;115220;-69
2023/07/19 03:50:50;;;;;;;;;;;;;;;;;;;;;
2023/07/19 03:59:25;;;;;;;5.10;3.50;;;;;;;14.03;66.77;99967.99;125687;1303;638664;-68
2023/07/19 04:03:28;;;;;;;7.00;3.10;;;;;;;14.16;66.70;99972.67;128505;1273;129019;-67
2023/07/19 04:11:35;;;;;;;6.50;3.00;;;;;;;14.48;66.32;99969.87;122163;1298;5575542;-68
2023/07/19 04:15:37;;;;;;;4.30;2.90;;;;;;;14.70;66.52;99973.21;124009;1332;114989;-68
2023/07/19 04:24:12;;;;;;;6.30;3.40;;;;;;;15.18;65.57;99971.90;125747;1304;641028;-69
2023/07/19 04:28:13;;;;;;;4.50;2.80;;;;;;;15.44;65.73;99978.77;126987;1287;129100;-70
2023/07/19 04:36:18;;;;;;;5.10;2.80;;;;;;;16.00;64.69;99969.29;121728;1298;5455256;-68
2023/07/19 04:40:18;;;;;;;;;;;;;;;;;;;;;
2023/07/19 04:48:52;;;;;;;6.60;2.70;;;;;;;17.85;64.19;99962.09;125853;1303;636539;-68
2023/07/19 04:52:54;;;;;;;4.70;2.60;;;;;;;19.29;62.22;99954.90;128013;1278;128964;-67
2023/07/19 04:56:56;;;;;;;3.60;2.80;;;;;;;20.62;60.85;99955.39;126530;1312;115686;-69
2023/07/19 05:00:59;;;;;;;4.70;2.70;;;;;;;21.95;58.84;99950.67;121942;1293;5448809;-70
2023/07/19 05:04:39;;;;;;;4.10;2.40;;;;;;;23.07;56.38;99950.13;126239;1303;114781;-69
2023/07/19 05:08:41;;;;;;;7.40;2.70;;;;;;;23.54;55.08;99951.58;125755;1305;114937;-69
2023/07/19 05:12:31;;;;;;;4.00;2.60;;;;;;;23.85;53.54;99954.88;125345;1310;115409;-69
2023/07/19 05:16:13;;;;;;;;;;;;;;;;;;;;;
2023/07/19 05:24:49;;;;;;;4.80;2.80;;;;;;;24.23;50.38;99943.77;125694;1299;638625;-69
2023/07/19 05:28:53;;;;;;;6.30;2.70;;;;;;;24.19;50.20;99946.14;127490;1284;128815;-69
2023/07/19 05:37:03;;;;;;;8.00;4.40;;;;;;;23.81;48.90;99936.98;122540;1290;5555256;-69
2023/07/19 05:40:42;;;;;;;8.70;4.10;;;;;;;23.76;49.14;99935.29;124938;1310;115045;-68
2023/07/19 05:44:44;;;;;;;9.40;3.60;;;;;;;23.88;48.99;99928.88;124977;1317;114988;-69
2023/07/19 05:48:34;;;;;;;;;;;;;;;;;;;;;
2023/07/19 05:52:34;;;;;;;;;;;;;;;;;;;;;
2023/07/19 05:56:50;;;;;;;5.00;3.40;;;;;;;24.78;47.56;99918.24;125752;1303;636761;-69
2023/07/19 06:01:02;;;;;;;8.20;2.80;;;;;;;25.42;46.91;99919.38;127543;1289;120266;-67
2023/07/19 06:04:48;;;;;;;5.40;2.80;;;;;;;26.22;46.59;99913.47;126883;1311;114869;-68
2023/07/19 06:12:33;;;;;;;;;;;;;;;;;;;;;
2023/07/19 06:16:35;;;;;;;5.60;2.90;;;;;;;28.03;44.19;99901.64;126048;1298;114966;-69
2023/07/19 06:20:16;;;;;;;6.50;3.20;;;;;;;28.64;42.37;99896.80;125518;1303;121069;-68
2023/07/19 06:24:07;;;;;;;11.10;4.10;;;;;;;29.08;41.24;99898.20;125255;1304;115009;-68
2023/07/19 06:28:08;;;;;;;5.20;3.30;;;;;;;29.50;40.10;99894.91;125259;1311;114927;-69
2023/07/19 06:32:09;;;;;;;6.60;3.10;;;;;;;29.87;39.01;99895.19;125187;1318;114959;-70
2023/07/19 06:36:10;;;;;;;5.60;2.80;;;;;;;30.12;38.22;99890.63;123907;1326;114953;-69
2023/07/19 06:44:40;;;;;;;5.10;2.50;;;;;;;30.86;36.61;99881.73;125919;1300;638438;-70
2023/07/19 06:48:43;;;;;;;5.20;2.70;;;;;;;31.21;36.11;99880.63;127542;1285;119550;-70
2023/07/19 06:56:29;;;;;;;4.10;2.10;;;;;;;31.14;34.58;99882.23;121920;1306;5434531;-70
2023/07/19 07:00:22;;;;;;;7.90;3.10;;;;;;;31.32;34.38;99873.96;125540;1305;114948;-70
2023/07/19 07:04:09;;;;;;;;;;;;;;;;;;;;;
2023/07/19 07:08:11;;;;;;;8.10;2.90;;;;;;;31.52;33.86;99871.89;125663;1318;121052;-70
2023/07/19 07:12:12;;;;;;;6.90;3.20;;;;;;;31.95;33.48;99866.58;125351;1315;114935;-69
2023/07/19 07:20:47;;;;;;;8.40;2.90;;;;;;;32.91;32.58;99854.54;125555;1305;639168;-69
2023/07/19 07:24:47;;;;;;;8.40;3.10;;;;;;;33.46;31.47;99856.55;126999;1294;119228;-71
2023/07/19 07:28:49;;;;;;;7.50;2.50;;;;;;;33.68;30.33;99852.73;126220;1296;114813;-66
2023/07/19 07:32:52;;;;;;;8.30;3.00;;;;;;;34.09;30.17;99852.98;121814;1303;5455249;-69
2023/07/19 07:36:50;;;;;;;4.00;2.20;;;;;;;34.53;29.94;99857.33;124570;1311;116354;-70
2023/07/19 07:45:06;;;;;;;4.00;2.40;;;;;;;35.44;29.13;99846.38;126129;1307;635466;-70
2023/07/19 07:49:08;;;;;;;5.30;2.90;;;;;;;35.83;28.69;99843.23;128648;1276;120234;-67
2023/07/19 07:53:12;;;;;;;7.20;2.60;;;;;;;36.15;28.48;99841.26;126997;1289;114869;-69
2023/07/19 07:57:02;;;;;;;;;;;;;;;;;;;;;
2023/07/19 08:05:39;;;;;;;3.70;2.50;;;;;;;36.38;27.38;99839.84;126581;1294;638692;-70
2023/07/19 08:09:22;;;;;;;5.20;2.60;;;;;;;36.47;26.96;99835.17;127817;1283;120574;-67
2023/07/19 08:13:05;;;;;;;;;;;;;;;36.51;26.69;99834.11;127249;1297;114922;-70
2023/07/19 08:20:50;;;;;;;2.90;2.60;;;;;;;36.67;26.42;99837.98;122099;1300;114918;-69
2023/07/19 08:28:02;;;;;;;4.60;2.70;;;;;;;36.65;25.76;99832.55;125946;1309;114901;-70
2023/07/19 08:31:53;;;;;;;5.00;2.60;;;;;;;36.76;25.65;99833.39;125233;1309;122690;-70
2023/07/19 08:35:46;;;;;;;;;;;;;;;;;;;;;
2023/07/19 08:39:30;;;;;;;3.50;2.50;;;;;;;36.65;24.72;99819.48;124307;1332;114882;-69
2023/07/19 08:43:31;;;;;;;7.10;3.00;;;;;;;36.54;25.01;99813.82;123398;1330;114874;-67
2023/07/19 08:47:32;;;;;;;7.30;2.30;;;;;;;36.41;25.06;99811.36;124153;1332;115580;-71
2023/07/19 08:51:36;;;;;;;6.60;2.70;;;;;;;36.33;24.64;99803.16;124347;1313;119317;-69
2023/07/19 08:55:27;;;;;;;7.80;3.30;;;;;;;36.24;24.68;99799.04;124556;1315;114988;-70
2023/07/19 08:59:19;;;;;;;6.70;2.90;;;;;;;35.78;24.35;99798.56;124623;1330;114865;-69
2023/07/19 09:03:03;;;;;;;;;;;;;;;;;;;;;
2023/07/19 09:11:19;;;;;;;4.30;2.30;;;;;;;35.38;25.23;99782.67;125704;1303;637616;-70
2023/07/19 09:15:22;;;;;;;4.10;2.40;;;;;;;35.26;25.18;99776.67;128237;1279;122615;-71
2023/07/19 09:19:24;;;;;;;2.60;2.30;;;;;;;35.08;25.44;99767.19;127516;1286;114767;-71
2023/07/19 09:22:44;;;;;;;2.60;2.30;;;;;;;34.94;25.66;99767.56;120481;1318;7613695;-65
2023/07/19 09:27:00;;;;;;;;;;;;;;;;;;;;;
2023/07/19 09:31:03;;;;;;;9.50;2.80;;;;;;;34.59;25.86;99765.66;125825;1301;114948;-69
2023/07/19 09:35:04;;;;;;;5.10;3.30;;;;;;;34.44;25.61;99765.03;125262;1318;114982;-70
2023/07/19 09:39:06;;;;;;;8.90;2.80;;;;;;;34.21;25.88;99761.61;124969;1307;119795;-69
2023/07/19 09:42:56;;;;;;;4.20;2.90;;;;;;;34.11;25.76;99759.00;124264;1316;114981;-69
2023/07/19 09:46:44;;;;;;;;;;;;;;;;;;;;;
2023/07/19 09:50:36;;;;;;;;;;;;;;;;;;;;;
2023/07/19 09:59:11;;;;;;;4.40;2.80;;;;;;;33.53;26.88;99736.92;125745;1305;636409;-70
2023/07/19 10:03:06;;;;;;;5.60;3.50;;;;;;;33.32;26.50;99734.48;127979;1283;119385;-69
2023/07/19 10:07:02;;;;;;;;;;;;;;;;;;;;;
2023/07/19 10:10:47;;;;;;;6.20;2.80;;;;;;;32.77;27.23;99727.10;122749;1294;5464641;-68
2023/07/19 10:15:02;;;;;;;8.30;3.60;;;;;;;32.55;27.53;99721.03;126886;1308;114945;-71
2023/07/19 10:18:52;;;;;;;6.30;2.80;;;;;;;32.15;26.93;99717.50;126261;1299;114943;-70
2023/07/19 10:23:18;;;;;;;;;;;;;;;;;;;;;
2023/07/19 10:27:20;;;;;;;5.00;2.50;;;;;;;31.41;27.59;99706.14;125264;1298;119929;-71
2023/07/19 10:31:27;;;;;;;5.20;2.70;;;;;;;31.23;27.98;99710.78;124347;1315;114947;-64
2023/07/19 10:39:45;;;;;;;4.90;2.10;;;;;;;31.16;28.38;99707.13;125803;1301;636339;-70
2023/07/19 10:47:51;;;;;;;4.40;2.50;;;;;;;31.27;28.79;99698.45;127254;1286;114844;-70
2023/07/19 10:51:59;;;;;;;3.90;1.80;;;;;;;31.32;28.70;99695.95;122682;1291;5501644;-69
2023/07/19 10:55:42;;;;;;;5.10;3.20;;;;;;;31.41;28.89;99695.62;125191;1310;116546;-67
2023/07/19 11:03:34;;;;;;;7.00;2.50;;;;;;;31.62;29.12;99677.96;125009;1310;114868;-70
2023/07/19 11:12:09;;;;;;;6.30;2.60;;;;;;;31.93;28.94;99676.65;125613;1303;638424;-69
2023/07/19 11:16:11;;;;;;;5.40;2.60;;;;;;;31.99;28.72;99673.98;127442;1287;119562;-70
2023/07/19 11:20:16;;;;;;;;;;;;;;;;;;;;;
2023/07/19 11:24:30;;;;;;;3.10;2.60;;;;;;;31.96;28.31;99665.27;122259;1302;5445291;-72
2023/07/19 11:28:34;;;;;;;4.90;2.60;;;;;;;31.75;28.13;99659.39;124678;1331;114897;-70
2023/07/19 11:36:56;;;;;;;;;;;;;;;;;;;;;
2023/07/19 11:40:47;;;;;;;;;;;;;;;;;;;;;
2023/07/19 11:45:04;;;;;;;3.70;2.40;;;;;;;31.15;28.82;99651.04;127031;1306;114820;-70
2023/07/19 11:49:01;;;;;;;7.00;2.20;;;;;;;31.14;29.08;99641.16;122622;1290;5422319;-71
2023/07/19 11:52:54;;;;;;;4.20;2.60;;;;;;;31.12;29.01;99642.47;125528;1305;114818;-70
2023/07/19 11:56:54;;;;;;;4.50;2.40;;;;;;;31.11;28.61;99642.93;125022;1302;114837;-71
2023/07/19 12:00:36;;;;;;;2.90;2.20;;;;;;;31.05;28.41;99641.83;125437;1303;114938;-70
2023/07/19 12:04:29;;;;;;;;;;;;;;;;;;;;;
2023/07/19 12:12:57;;;;;;;3.60;2.00;;;;;;;30.82;28.36;99634.30;125722;1298;638569;-69
2023/07/19 12:21:33;;;;;;;2.10;1.90;;;;;;;31.09;28.81;99627.06;125470;1298;642221;-69
2023/07/19 12:25:28;;;;;;;3.00;1.80;;;;;;;31.18;28.52;99612.53;127446;1287;119698;-71
2023/07/19 12:29:29;;;;;;;;;;;;;;;;;;;;;
2023/07/19 12:33:35;;;;;;;;;;;;;;;;;;;;;
2023/07/19 12:37:30;;;;;;;2.90;2.20;;;;;;;31.44;28.18;99617.14;125577;1304;114975;-71
2023/07/19 12:41:13;;;;;;;4.20;2.40;;;;;;;31.38;28.08;99614.19;124947;1312;115248;-69
2023/07/19 12:45:08;;;;;;;5.80;2.50;;;;;;;31.29;27.44;99608.96;125369;1313;114992;-76
2023/07/19 12:57:42;;;;;;;7.90;2.60;;;;;;;30.83;27.49;99594.71;127043;1287;120218;-76
2023/07/19 13:02:00;;;;;;;4.20;2.40;;;;;;;30.71;27.37;99598.91;126283;1299;114899;-67
2023/07/19 13:06:00;;;;;;;7.80;2.90;;;;;;;30.58;27.38;99591.28;121809;1302;5426020;-74
2023/07/19 13:14:19;;;;;;;;;;;;;;;;;;;;;
2023/07/19 13:18:11;;;;;;;;;;;;;;;;;;;;;
2023/07/19 13:22:14;;;;;;;5.10;2.90;;;;;;;30.31;27.46;99573.10;127286;1290;114751;-80
2023/07/19 13:26:22;;;;;;;6.00;2.60;;;;;;;30.28;27.38;99570.78;122191;1309;5478182;-71
2023/07/19 13:30:08;;;;;;;;;;;;;;;;;;;;;
2023/07/19 13:34:07;;;;;;;;;;;;;;;;;;;;;
2023/07/19 13:42:32;;;;;;;;;;;;;;;;;;;;;
2023/07/19 13:46:36;;;;;;;4.80;2.80;;;;;;;30.62;26.86;99553.73;127425;1291;120222;-75
2023/07/19 13:50:43;;;;;;;3.90;2.30;;;;;;;30.72;26.90;99556.36;126483;1298;115660;-74
2023/07/19 13:54:45;;;;;;;5.50;2.50;;;;;;;30.71;26.46;99552.75;121380;1315;5446120;-77
2023/07/19 14:03:12;;;;;;;4.20;2.40;;;;;;;30.65;26.13;99549.96;126807;1291;636540;-68
2023/07/19 14:07:06;;;;;;;;;;;;;;;;;;;;;
2023/07/19 14:10:37;;;;;;;;;;;;;;;30.40;25.50;99544.75;127250;1286;116345;-74
2023/07/19 14:18:31;;;;;;;;;;;;;;;;;;;;;
2023/07/19 14:23:06;;;;;;;4.80;2.00;;;;;;;30.22;25.68;99531.60;125638;1312;636482;-79
2023/07/19 14:26:58;;;;;;;;;;;;;;;;;;;;;
2023/07/19 14:30:45;;;;;;;1.90;1.70;;;;;;;30.05;25.46;99531.84;126497;1296;114904;-77
2023/07/19 14:34:46;;;;;;;;;;;;;;;;;;;;;
2023/07/19 14:43:04;;;;;;;;;;;;;;;;;;;;;
2023/07/19 14:46:45;;;;;;;;;;;;;;;;;;;;;
2023/07/19 14:50:50;;;;;;;2.80;1.80;;;;;;;30.01;24.87;99517.42;128522;1277;114819;-77
2023/07/19 14:55:21;;;;;;;2.80;2.10;;;;;;;30.02;24.68;99516.40;127783;1286;115299;-81
2023/07/19 15:07:24;;;;;;;;;;;;;;;;;;;;;
2023/07/19 15:11:28;;;;;;;2.90;2.00;;;;;;;29.77;24.47;99492.96;128424;1279;117874;-79
2023/07/19 15:15:20;;;;;;;3.50;1.90;;;;;;;29.71;24.52;99490.45;127006;1287;114898;-75
2023/07/19 15:23:30;;;;;;;3.30;1.80;;;;;;;29.66;24.45;99500.60;125809;1301;638822;-74
2023/07/19 15:27:23;;;;;;;3.20;1.80;;;;;;;29.64;24.39;99497.11;128837;1278;119389;-78
2023/07/19 15:31:15;;;;;;;4.20;2.20;;;;;;;29.61;24.28;99490.44;128962;1271;114984;-82
2023/07/19 15:39:38;;;;;;;4.80;2.20;;;;;;;29.54;24.86;99486.56;123708;1286;114865;-78
2023/07/19 15:43:00;;;;;;;4.70;2.20;;;;;;;29.45;24.57;99485.09;127731;1289;114942;-70
2023/07/19 15:46:11;;;;;;;3.10;1.90;;;;;;;29.37;24.65;99483.81;127625;1286;114939;-63
2023/07/19 15:49:26;;;;;;;;;;;;;;;;;;;;;
2023/07/19 15:53:01;;;;;;;4.10;2.20;;;;;;;29.21;24.76;99481.74;126957;1288;115225;-64
2023/07/19 15:56:19;;;;;;;4.70;1.90;;;;;;;29.09;24.98;99479.15;126770;1289;114948;-64
2023/07/19 15:59:43;;;;;;;3.80;2.00;;;;;;;28.95;24.99;99478.85;127685;1295;114948;-66
2023/07/19 16:02:47;;;;;;;4.10;2.00;;;;;;;28.82;25.09;99480.05;128275;1280;115035;-64
2023/07/19 16:05:49;;;;;;;3.10;2.20;;;;;;;28.72;25.34;99479.55;127891;1279;120290;-64
2023/07/19 16:09:31;;;;;;;5.30;2.90;;;;;;;28.63;25.48;99474.77;127912;1296;114856;-64
2023/07/19 16:12:51;;;;;;;;;;;;;;;;;;;;;
2023/07/19 16:16:21;;;;;;;5.70;2.50;;;;;;;28.43;25.86;99478.98;128437;1273;115196;-64
2023/07/19 16:19:50;;;;;;;2.90;1.80;;;;;;;28.37;26.00;99476.90;129497;1274;115164;-64
2023/07/19 16:23:22;;;;;;;2.70;2.00;;;;;;;28.34;26.20;99476.89;128694;1267;120564;-66
2023/07/19 16:27:13;;;;;;;;;;;;;;;;;;;;;
2023/07/19 16:31:02;;;;;;;;;;;;;;;;;;;;;
2023/07/19 16:35:06;;;;;;;3.10;2.20;;;;;;;28.38;26.24;99463.77;127385;1298;114929;-63
2023/07/19 16:39:09;;;;;;;;;;;;;;;;;;;;;
2023/07/19 16:43:00;;;;;;;;;;;;;;;;;;;;;
2023/07/19 16:46:45;;;;;;;1.70;1.60;;;;;;;28.49;26.75;99456.02;124795;1320;115253;-62
2023/07/19 16:50:44;;;;;;;;;;;;;;;;;;;;;
2023/07/19 16:54:37;;;;;;;;;;;;;;;;;;;;;
2023/07/19 16:58:49;;;;;;;3.50;2.30;;;;;;;28.24;27.19;99463.42;126312;1295;635660;-63
2023/07/19 17:02:51;;;;;;;3.00;2.30;;;;;;;28.07;27.29;99468.78;129525;1267;120201;-64
2023/07/19 17:06:55;;;;;;;5.00;2.70;;;;;;;27.89;27.32;99469.83;129447;1272;114761;-65
2023/07/19 17:10:47;;;;;;;7.20;2.50;;;;;;;27.71;27.53;99471.45;124888;1278;5451526;-63
2023/07/19 17:14:29;;;;;;;5.80;2.60;;;;;;;27.55;27.85;99471.80;127359;1296;114904;-64
2023/07/19 17:18:43;;;;;;;3.30;2.30;;;;;;;27.42;28.05;99475.90;127010;1287;114960;-64
2023/07/19 17:22:06;;;;;;;3.20;2.30;;;;;;;27.27;28.27;99478.84;126811;1297;115001;-61
2023/07/19 17:25:34;;;;;;;5.80;2.30;;;;;;;27.14;28.55;99476.86;127254;1287;120392;-63
2023/07/19 17:28:57;;;;;;;;;;;;;;;;;;;;;
2023/07/19 17:33:03;;;;;;;6.10;3.60;;;;;;;26.87;28.92;99475.63;126600;1289;114967;-63
2023/07/19 17:36:34;;;;;;;;;;;;;;;;;;;;;
2023/07/19 17:40:24;;;;;;;5.20;2.90;;;;;;;26.58;29.72;99462.71;125133;1307;114927;-64
2023/07/19 17:43:56;;;;;;;4.10;3.30;;;;;;;26.43;29.92;99467.30;124387;1312;121211;-65
2023/07/19 17:47:45;;;;;;;5.00;2.80;;;;;;;26.26;30.37;99466.80;124789;1325;115230;-64
2023/07/19 17:51:40;;;;;;;7.30;3.10;;;;;;;26.09;30.65;99469.52;124871;1317;114874;-65
2023/07/19 17:55:21;;;;;;;3.30;2.60;;;;;;;25.94;30.91;99468.50;124933;1325;115298;-65
2023/07/19 17:58:52;;;;;;;;;;;;;;;;;;;;;
2023/07/19 18:02:44;;;;;;;7.00;4.10;;;;;;;25.72;31.63;99481.00;124114;1329;120211;-66
2023/07/19 18:06:44;;;;;;;;;;;;;;;;;;;;;
2023/07/19 18:14:47;;;;;;;;;;;;;;;;;;;;;
2023/07/19 18:18:41;;;;;;;13.50;2.80;;;;;;;25.20;33.26;99510.70;128671;1269;127727;-63
2023/07/19 18:22:33;;;;;;;5.70;3.10;;;;;;;25.05;33.57;99509.13;128638;1289;115302;-64
2023/07/19 18:26:29;;;;;;;4.80;3.00;;;;;;;24.88;33.92;99515.14;128663;1277;114923;-65
2023/07/19 18:30:10;;;;;;;5.10;2.20;;;;;;;24.69;34.30;99520.99;123858;1277;115024;-64
2023/07/19 18:34:12;;;;;;;3.40;2.30;;;;;;;24.51;34.57;99524.52;127728;1279;114827;-64
2023/07/19 18:38:06;;;;;;;;;;;;;;;;;;;;;
2023/07/19 18:41:36;;;;;;;;;;;;;;;;;;;;;
2023/07/19 18:45:39;;;;;;;3.30;2.50;;;;;;;24.05;35.52;99527.70;126701;1291;115022;-63
2023/07/19 18:49:19;;;;;;;8.20;2.60;;;;;;;23.88;35.90;99525.44;125628;1300;114837;-65
2023/07/19 18:53:04;;;;;;;;;;;;;;;;;;;;;
2023/07/19 18:56:34;;;;;;;;;;;;;;;;;;;;;
2023/07/19 19:00:06;;;;;;;3.90;2.80;;;;;;;23.42;36.79;99531.75;125900;1300;129795;-65
2023/07/19 19:03:58;;;;;;;;;;;;;;;;;;;;;
2023/07/19 19:08:00;;;;;;;5.40;2.90;;;;;;;23.11;37.54;99532.74;125467;1316;115241;-65
2023/07/19 19:11:21;;;;;;;3.40;2.00;;;;;;;22.95;37.87;99533.63;125839;1300;114916;-65
2023/07/19 19:15:23;;;;;;;8.90;3.00;;;;;;;22.82;38.27;99537.79;126035;1311;114984;-64
2023/07/19 19:19:07;;;;;;;6.10;3.90;;;;;;;22.67;38.52;99537.89;126610;1288;129649;-63
2023/07/19 19:22:25;;;;;;;7.80;4.00;;;;;;;22.51;38.88;99546.21;126811;1288;116437;-64
2023/07/19 19:25:52;;;;;;;9.80;4.10;;;;;;;22.40;39.19;99553.74;127650;1277;115019;-64
2023/07/19 19:29:56;;;;;;;7.40;4.10;;;;;;;22.26;39.64;99557.48;128843;1276;114805;-66
2023/07/19 19:33:47;;;;;;;10.40;4.20;;;;;;;22.11;40.29;99555.48;128606;1274;115131;-65
2023/07/19 19:37:51;;;;;;;7.90;4.50;;;;;;;21.96;40.70;99557.08;127263;1290;128031;-65
2023/07/19 19:41:52;;;;;;;9.10;4.70;;;;;;;21.83;41.18;99558.38;127439;1285;115279;-65
2023/07/19 19:45:53;;;;;;;11.20;4.80;;;;;;;21.68;41.53;99558.32;126037;1295;115051;-65
2023/07/19 19:49:44;;;;;;;7.10;4.90;;;;;;;21.54;41.84;99560.94;125882;1300;114919;-64
2023/07/19 19:57:58;;;;;;;;;;;;;;;;;;;;;
2023/07/19 20:01:41;;;;;;;;;;;;;;;;;;;;;
2023/07/19 20:04:50;;;;;;;13.20;5.30;;;;;;;21.14;43.21;99574.06;127296;1285;115388;-64
2023/07/19 20:08:44;;;;;;;11.50;5.30;;;;;;;21.08;43.67;99579.02;128108;1292;114923;-67
2023/07/19 20:12:46;;;;;;;11.70;4.90;;;;;;;21.04;44.03;99576.84;122911;1303;5408732;-64
2023/07/19 20:16:48;;;;;;;11.70;4.40;;;;;;;21.02;44.22;99572.88;125511;1308;115041;-64
2023/07/19 20:20:49;;;;;;;8.20;3.60;;;;;;;21.01;44.42;99568.29;124776;1311;114960;-65
2023/07/19 20:24:50;;;;;;;9.20;4.90;;;;;;;20.99;44.49;99552.89;124680;1311;129831;-65
2023/07/19 20:37:12;;;;;;;12.30;3.80;;;;;;;21.01;45.26;99565.60;128691;1275;127852;-68
2023/07/19 20:41:08;;;;;;;6.80;3.90;;;;;;;21.00;45.56;99565.02;127732;1304;115057;-67
2023/07/19 20:45:10;;;;;;;6.60;4.10;;;;;;;20.98;45.81;99557.08;122975;1303;5420424;-67
2023/07/19 20:49:03;;;;;;;6.30;4.60;;;;;;;20.92;46.00;99550.00;125634;1315;114964;-68
2023/07/19 20:53:03;;;;;;;7.80;4.90;;;;;;;20.86;45.68;99547.23;125699;1318;114830;-67
2023/07/19 21:01:30;;;;;;;10.10;5.10;;;;;;;20.72;46.14;99557.38;126252;1297;636955;-67
2023/07/19 21:05:33;;;;;;;8.50;3.90;;;;;;;20.60;46.41;99561.23;127819;1283;129552;-67
2023/07/19 21:09:46;;;;;;;9.70;4.70;;;;;;;20.50;46.66;99564.27;126571;1295;115366;-68
2023/07/19 21:13:27;;;;;;;12.30;5.50;;;;;;;20.43;46.95;99565.23;120473;1304;7540485;-68
2023/07/19 21:17:25;;;;;;;12.20;4.80;;;;;;;20.36;47.13;99568.61;124890;1314;115352;-68
2023/07/19 21:21:26;;;;;;;11.20;4.50;;;;;;;20.30;47.40;99571.57;125062;1311;114893;-67
2023/07/19 21:25:28;;;;;;;9.00;4.60;;;;;;;20.23;47.59;99576.09;125732;1305;114875;-67
2023/07/19 21:29:21;;;;;;;7.40;3.80;;;;;;;20.17;47.85;99585.22;125159;1314;114936;-68
2023/07/19 21:37:55;;;;;;;5.80;3.90;;;;;;;20.09;48.13;99568.27;125859;1314;636812;-69
2023/07/19 21:41:58;;;;;;;8.50;4.90;;;;;;;20.03;48.36;99570.71;127966;1280;128766;-69
2023/07/19 21:45:58;;;;;;;6.90;4.10;;;;;;;19.97;48.46;99567.02;126803;1304;115243;-68
2023/07/19 21:49:59;;;;;;;6.40;4.70;;;;;;;19.89;48.69;99566.33;122099;1295;5433216;-68
2023/07/19 22:06:37;;;;;;;11.70;3.90;;;;;;;19.83;49.52;99560.16;125792;1302;638397;-69
2023/07/19 22:10:39;;;;;;;8.10;3.90;;;;;;;19.85;49.67;99560.54;127521;1286;128730;-68
2023/07/19 22:14:43;;;;;;;6.50;3.80;;;;;;;19.88;49.85;99565.16;127038;1290;115457;-69
2023/07/19 22:18:47;;;;;;;17.90;5.30;;;;;;;19.90;50.15;99569.45;122431;1297;5422340;-68
2023/07/19 22:22:41;;;;;;;7.90;4.20;;;;;;;19.93;50.13;99570.77;126196;1299;114903;-68
2023/07/19 22:26:43;;;;;;;7.10;3.50;;;;;;;19.97;50.29;99582.20;125379;1311;114952;-68
2023/07/19 22:39:20;;;;;;;5.30;3.10;;;;;;;20.07;51.14;99602.60;127919;1284;128810;-69
2023/07/19 22:47:27;;;;;;;;;;;;;;;;;;;;;
2023/07/19 22:55:45;;;;;;;11.00;4.50;;;;;;;20.01;54.52;99661.14;126185;1298;636060;-66
2023/07/19 22:59:48;;;;;;;6.10;3.70;;;;;;;19.94;56.41;99662.63;128233;1287;129011;-68
2023/07/19 23:03:33;;;;;;;7.80;3.70;;;;;;;19.80;57.30;99676.98;127215;1289;115477;-69
2023/07/19 23:07:58;;;;;;;11.50;3.80;;;;;;;19.60;58.10;99679.27;127292;1306;115135;-69
2023/07/19 23:11:15;;;;;;;9.80;3.30;;;;;;;19.32;58.60;99692.32;122643;1315;114929;-69
2023/07/19 23:14:58;;;;;;;5.20;2.70;;;;;;;19.05;59.24;99703.20;126264;1311;114853;-69
2023/07/19 23:18:50;;;;;;;9.90;3.00;;;;;;;18.81;59.83;99709.00;125664;1303;115226;-69
2023/07/19 23:22:36;;;;;;;4.50;2.50;;;;;;;18.60;60.52;99700.66;125704;1321;129765;-69
2023/07/19 23:26:28;;;;;;;;;;;;;;;;;;;;;
2023/07/19 23:30:27;;;;;;;;;;;;;;;;;;;;;
2023/07/19 23:34:29;;;;;;;6.90;3.20;;;;;;;18.12;62.68;99674.48;124501;1327;114861;-67
2023/07/19 23:38:31;;;;;;;5.70;2.70;;;;;;;18.02;63.58;99686.26;124362;1315;114948;-67
2023/07/19 23:46:54;;;;;;;7.00;3.20;;;;;;;17.87;64.67;99661.04;125614;1311;638397;-67
2023/07/19 23:50:37;;;;;;;5.70;2.90;;;;;;;17.79;65.44;99663.90;129129;1273;127702;-67
2023/07/19 23:54:31;;;;;;;9.40;3.40;;;;;;;17.71;65.80;99663.47;128751;1277;115216;-66
2023/07/19 23:58:19;;;;;;;6.80;3.30;;;;;;;17.64;66.24;99668.86;128653;1286;114798;-67
